Time;durP1;ratioP1;P1;durP2;ratioP2;P2;SDS_P1;SDS_P2;PMS_P1;PMS_P2;Temp;Humidity;BMP_temperature;BMP_pressure;BME280_temperature;BME280_humidity;BME280_pressure;Samples;Min_cycle;Max_cycle;Signal;HPM_P1;HPM_P2
2022/07/14 00:00:13;;;;;;;3.95;1.73;;;26.40;81.60;;;;;;5127278;27;20856;-74
2022/07/14 00:02:39;;;;;;;3.95;1.50;;;26.40;81.70;;;;;;5127200;27;20039;-74
2022/07/14 00:05:06;;;;;;;3.42;1.50;;;26.40;81.80;;;;;;5128059;27;20052;-74
2022/07/14 00:07:32;;;;;;;3.05;1.13;;;26.30;81.80;;;;;;5126736;27;20093;-74
2022/07/14 00:09:58;;;;;;;2.60;1.73;;;26.30;81.90;;;;;;5127274;27;20061;-75
2022/07/14 00:12:23;;;;;;;1.60;1.08;;;26.30;81.80;;;;;;5127355;27;20039;-74
2022/07/14 00:14:49;;;;;;;3.70;2.15;;;26.30;81.80;;;;;;5126836;27;20043;-75
2022/07/14 00:17:15;;;;;;;2.22;1.45;;;26.30;81.90;;;;;;5126383;27;20154;-75
2022/07/14 00:19:41;;;;;;;6.60;2.10;;;26.20;81.80;;;;;;5125105;27;20035;-75
2022/07/14 00:22:06;;;;;;;3.08;1.83;;;26.20;81.90;;;;;;5127020;27;20044;-74
2022/07/14 00:24:32;;;;;;;4.15;1.40;;;26.20;82.00;;;;;;5127268;27;20463;-75
2022/07/14 00:26:58;;;;;;;2.50;1.55;;;26.10;82.10;;;;;;5126965;27;20127;-74
2022/07/14 00:29:24;;;;;;;3.60;1.50;;;26.00;82.10;;;;;;5125665;27;20040;-74
2022/07/14 00:31:49;;;;;;;5.43;2.13;;;26.00;82.20;;;;;;5127208;27;20059;-75
2022/07/14 00:34:15;;;;;;;4.00;2.03;;;26.00;82.30;;;;;;5124748;27;20047;-75
2022/07/14 00:36:41;;;;;;;5.10;1.70;;;26.00;82.40;;;;;;5126816;27;20043;-74
2022/07/14 00:39:07;;;;;;;2.83;1.83;;;26.00;82.40;;;;;;5125757;27;20054;-74
2022/07/14 00:41:32;;;;;;;2.83;1.75;;;26.10;82.50;;;;;;5125932;27;20070;-74
2022/07/14 00:43:59;;;;;;;8.98;2.30;;;26.00;82.40;;;;;;5123589;27;20536;-74
2022/07/14 00:46:25;;;;;;;5.28;2.03;;;26.00;82.40;;;;;;5125223;27;20042;-75
2022/07/14 00:48:51;;;;;;;6.30;1.77;;;26.00;82.40;;;;;;5125234;27;20088;-75
2022/07/14 00:51:17;;;;;;;3.67;1.50;;;26.00;82.40;;;;;;5126124;27;20031;-74
2022/07/14 00:53:42;;;;;;;3.75;1.67;;;26.00;82.40;;;;;;5126442;27;20120;-74
2022/07/14 00:56:08;;;;;;;3.35;1.70;;;26.00;82.40;;;;;;5126002;27;20043;-74
2022/07/14 00:58:34;;;;;;;3.05;2.13;;;26.00;82.40;;;;;;5107256;27;20536;-74
2022/07/14 01:01:00;;;;;;;4.10;1.70;;;26.00;82.40;;;;;;5125959;27;20047;-75
2022/07/14 01:03:26;;;;;;;3.30;1.85;;;26.00;82.40;;;;;;5126381;27;20343;-74
2022/07/14 01:05:51;;;;;;;5.07;1.83;;;26.00;82.50;;;;;;5123583;27;20047;-74
2022/07/14 01:08:17;;;;;;;4.07;1.88;;;26.00;82.60;;;;;;5124230;27;20043;-74
2022/07/14 01:10:43;;;;;;;2.60;1.60;;;26.00;82.40;;;;;;5123200;27;20059;-74
2022/07/14 01:13:09;;;;;;;2.15;1.60;;;25.90;82.20;;;;;;5125996;27;20044;-74
2022/07/14 01:15:35;;;;;;;4.55;1.60;;;25.80;82.10;;;;;;5124229;27;20114;-74
2022/07/14 01:18:03;;;;;;;3.30;1.35;;;25.80;82.10;;;;;;5127086;27;20070;-75
2022/07/14 01:20:29;;;;;;;5.43;1.60;;;25.80;82.20;;;;;;5124716;27;20039;-74
2022/07/14 01:22:56;;;;;;;3.15;2.05;;;25.70;82.20;;;;;;5126138;27;20063;-75
2022/07/14 01:25:22;;;;;;;3.20;2.20;;;25.70;82.30;;;;;;5125948;27;20036;-74
2022/07/14 01:27:49;;;;;;;3.50;1.58;;;25.70;82.40;;;;;;5124520;27;20035;-74
2022/07/14 01:30:15;;;;;;;7.15;2.95;;;25.70;82.50;;;;;;5123217;27;20044;-74
2022/07/14 01:32:41;;;;;;;3.80;1.70;;;25.60;82.50;;;;;;5124335;27;20046;-74
2022/07/14 01:35:07;;;;;;;19.17;2.85;;;25.60;82.50;;;;;;5126357;27;20051;-74
2022/07/14 01:37:33;;;;;;;4.13;2.30;;;25.60;82.60;;;;;;5125256;27;20086;-74
2022/07/14 01:40:00;;;;;;;2.70;1.90;;;25.50;82.60;;;;;;5124972;27;20215;-75
2022/07/14 01:42:26;;;;;;;3.00;2.10;;;25.50;82.70;;;;;;5125643;27;20040;-74
2022/07/14 01:44:52;;;;;;;3.47;1.63;;;25.50;82.70;;;;;;5125746;27;20529;-74
2022/07/14 01:47:18;;;;;;;3.05;1.65;;;25.50;82.80;;;;;;5129198;27;20179;-74
2022/07/14 01:49:44;;;;;;;4.68;1.67;;;25.50;82.80;;;;;;5130638;27;20512;-74
2022/07/14 01:52:10;;;;;;;2.50;1.50;;;25.50;82.80;;;;;;5127972;27;20074;-74
2022/07/14 01:54:36;;;;;;;4.45;2.53;;;25.40;82.80;;;;;;5128770;27;20043;-74
2022/07/14 01:57:01;;;;;;;2.30;1.65;;;25.30;82.80;;;;;;5128977;27;20101;-74
2022/07/14 01:59:27;;;;;;;2.80;1.77;;;25.30;83.10;;;;;;5129902;27;20102;-74
2022/07/14 02:01:53;;;;;;;4.82;1.80;;;25.20;83.10;;;;;;5128149;27;20115;-75
2022/07/14 02:04:20;;;;;;;2.40;1.58;;;25.10;83.20;;;;;;5128417;27;20043;-75
2022/07/14 02:06:52;;;;;;;5.72;2.17;;;25.00;83.20;;;;;;5128664;27;20044;-74
2022/07/14 02:09:19;;;;;;;2.78;1.50;;;25.00;83.40;;;;;;5106105;27;20062;-74
2022/07/14 02:14:30;;;;;;;3.90;2.10;;;24.90;83.40;;;;;;5129118;27;20031;-74
2022/07/14 02:16:57;;;;;;;3.65;1.55;;;24.80;83.60;;;;;;5128806;27;20047;-74
2022/07/14 02:19:24;;;;;;;3.33;1.80;;;24.80;83.70;;;;;;5128437;27;20032;-74
2022/07/14 02:21:51;;;;;;;2.78;1.50;;;24.70;83.80;;;;;;5129154;27;20849;-75
2022/07/14 02:24:18;;;;;;;3.60;1.50;;;24.70;83.80;;;;;;5127364;27;20039;-74
2022/07/14 02:26:44;;;;;;;3.03;1.70;;;24.70;83.90;;;;;;5125997;27;20039;-74
2022/07/14 02:29:10;;;;;;;7.45;1.80;;;24.60;83.90;;;;;;5127153;27;20456;-74
2022/07/14 02:31:36;;;;;;;6.03;2.05;;;24.50;84.00;;;;;;5127431;27;20031;-74
2022/07/14 02:34:03;;;;;;;3.67;1.40;;;24.50;84.10;;;;;;5128343;27;20432;-74
2022/07/14 02:36:29;;;;;;;4.88;1.45;;;24.50;84.20;;;;;;5128148;27;20043;-74
2022/07/14 02:38:55;;;;;;;2.58;1.35;;;24.50;84.30;;;;;;5127717;27;20327;-74
2022/07/14 02:41:22;;;;;;;4.18;1.75;;;24.40;84.40;;;;;;5127552;27;20700;-75
2022/07/14 02:43:48;;;;;;;2.38;1.70;;;24.30;84.50;;;;;;5127860;27;20567;-74
2022/07/14 02:46:13;;;;;;;3.83;1.77;;;24.30;84.60;;;;;;5127086;27;20024;-74
2022/07/14 02:48:39;;;;;;;4.00;2.42;;;24.20;84.80;;;;;;5127133;27;20120;-74
2022/07/14 02:51:07;;;;;;;3.70;1.90;;;24.30;84.90;;;;;;5127235;27;20048;-74
2022/07/14 02:53:34;;;;;;;2.38;1.65;;;24.20;85.10;;;;;;5126272;27;20529;-74
2022/07/14 02:56:01;;;;;;;4.22;2.58;;;24.20;85.20;;;;;;5127455;27;20079;-74
2022/07/14 02:58:27;;;;;;;5.93;3.53;;;24.20;85.30;;;;;;5127174;27;20687;-74
2022/07/14 03:00:53;;;;;;;2.70;1.50;;;24.20;85.30;;;;;;5108820;27;20039;-75
2022/07/14 03:03:20;;;;;;;3.10;2.17;;;24.20;85.40;;;;;;5128326;27;20042;-74
2022/07/14 03:05:47;;;;;;;3.95;2.05;;;24.10;85.60;;;;;;5127086;27;20066;-74
2022/07/14 03:08:13;;;;;;;5.78;2.08;;;24.10;85.80;;;;;;5125929;27;20055;-74
2022/07/14 03:10:39;;;;;;;6.38;2.08;;;24.10;85.80;;;;;;5128096;27;20039;-74
2022/07/14 03:13:06;;;;;;;4.68;2.22;;;24.10;86.00;;;;;;5127414;27;20598;-74
2022/07/14 03:15:32;;;;;;;3.60;2.45;;;24.10;86.20;;;;;;5127534;27;20031;-74
2022/07/14 03:17:58;;;;;;;4.00;2.25;;;24.00;86.30;;;;;;5128172;27;20063;-74
2022/07/14 03:20:24;;;;;;;3.70;2.15;;;23.90;86.60;;;;;;5126804;27;20597;-74
2022/07/14 03:22:50;;;;;;;7.00;2.17;;;23.90;86.90;;;;;;5126377;27;20039;-75
2022/07/14 03:25:16;;;;;;;5.65;2.40;;;23.80;87.00;;;;;;5127948;27;20108;-75
2022/07/14 03:27:46;;;;;;;5.93;2.47;;;23.80;87.30;;;;;;5126551;27;20104;-75
2022/07/14 03:30:12;;;;;;;5.07;2.95;;;23.80;87.50;;;;;;5129135;27;20040;-74
2022/07/14 03:32:39;;;;;;;5.32;3.03;;;23.70;87.80;;;;;;5127894;27;21386;-74
2022/07/14 03:35:07;;;;;;;3.53;2.80;;;23.60;88.10;;;;;;5126785;27;20065;-75
2022/07/14 03:37:34;;;;;;;4.70;2.80;;;23.60;88.20;;;;;;5126021;27;20508;-75
2022/07/14 03:40:01;;;;;;;5.28;2.75;;;23.50;88.50;;;;;;5127762;27;20040;-74
2022/07/14 03:42:27;;;;;;;6.22;4.00;;;23.50;88.70;;;;;;5126467;27;20038;-74
2022/07/14 03:44:55;;;;;;;4.80;3.30;;;23.50;89.00;;;;;;5127124;27;20128;-74
2022/07/14 03:47:21;;;;;;;6.50;3.70;;;23.40;89.30;;;;;;5126104;27;20039;-75
2022/07/14 03:49:47;;;;;;;6.30;3.20;;;23.40;89.40;;;;;;5127071;27;20031;-74
2022/07/14 03:52:12;;;;;;;6.07;3.08;;;23.40;89.60;;;;;;5126521;27;20402;-74
2022/07/14 03:54:38;;;;;;;5.10;3.47;;;23.40;89.80;;;;;;5109057;27;20035;-74
2022/07/14 03:57:04;;;;;;;5.85;3.53;;;23.40;89.90;;;;;;5127463;27;20122;-74
2022/07/14 03:59:30;;;;;;;7.82;3.10;;;23.30;90.00;;;;;;5126765;27;20068;-74
2022/07/14 04:01:56;;;;;;;5.75;2.80;;;23.30;90.10;;;;;;5123877;27;20035;-75
2022/07/14 04:04:22;;;;;;;7.00;3.30;;;23.30;90.20;;;;;;5126018;27;20031;-75
2022/07/14 04:06:48;;;;;;;6.07;2.70;;;23.30;90.30;;;;;;5125795;27;20043;-75
2022/07/14 04:09:15;;;;;;;4.18;3.33;;;23.20;90.30;;;;;;5123193;27;20523;-75
2022/07/14 04:11:41;;;;;;;7.80;3.40;;;23.20;90.40;;;;;;5106842;27;20047;-75
2022/07/14 04:14:07;;;;;;;5.40;3.25;;;23.10;90.50;;;;;;5125794;27;20418;-75
2022/07/14 04:16:32;;;;;;;5.25;2.90;;;23.00;90.60;;;;;;5126524;27;20038;-75
2022/07/14 04:18:58;;;;;;;4.30;2.55;;;22.90;90.70;;;;;;5126331;27;20040;-74
2022/07/14 04:21:24;;;;;;;3.83;2.60;;;22.90;90.80;;;;;;5127269;27;20386;-75
2022/07/14 04:23:50;;;;;;;4.13;2.47;;;23.00;90.90;;;;;;5124403;27;20176;-75
2022/07/14 04:26:15;;;;;;;12.50;3.42;;;23.00;90.80;;;;;;5126280;27;20251;-75
2022/07/14 04:28:41;;;;;;;4.38;2.90;;;23.00;90.80;;;;;;5125000;27;20108;-75
2022/07/14 04:31:08;;;;;;;6.05;3.45;;;23.00;90.90;;;;;;5124103;27;20462;-74
2022/07/14 04:33:34;;;;;;;7.65;2.75;;;22.90;90.90;;;;;;5126002;27;20528;-75
2022/07/14 04:36:00;;;;;;;4.57;2.85;;;22.80;91.10;;;;;;5124907;27;20456;-75
2022/07/14 04:38:26;;;;;;;3.85;2.95;;;22.80;91.20;;;;;;5126637;27;20042;-75
2022/07/14 04:40:53;;;;;;;4.80;3.58;;;22.80;91.30;;;;;;5125914;27;20521;-75
2022/07/14 04:43:19;;;;;;;5.78;3.20;;;22.70;91.40;;;;;;5122621;27;20192;-74
2022/07/14 04:45:45;;;;;;;6.88;3.05;;;22.70;91.40;;;;;;5123708;27;20040;-75
2022/07/14 04:48:11;;;;;;;5.05;2.67;;;22.70;91.50;;;;;;5125035;27;20048;-75
2022/07/14 04:53:22;;;;;;;5.07;2.88;;;22.70;91.60;;;;;;5124654;27;20583;-75
2022/07/14 04:55:48;;;;;;;4.38;3.17;;;22.70;91.70;;;;;;5126077;27;20039;-74
2022/07/14 04:58:14;;;;;;;7.15;3.72;;;22.60;91.70;;;;;;5124969;27;20043;-74
2022/07/14 05:00:39;;;;;;;6.72;4.13;;;22.60;91.80;;;;;;5125662;27;20039;-74
2022/07/14 05:03:05;;;;;;;6.80;3.30;;;22.60;91.90;;;;;;5124788;27;20049;-75
2022/07/14 05:05:31;;;;;;;5.20;3.80;;;22.60;91.90;;;;;;5123637;27;20126;-74
2022/07/14 05:07:56;;;;;;;5.60;3.40;;;22.70;91.90;;;;;;5125702;27;20078;-75
2022/07/14 05:10:22;;;;;;;5.68;3.63;;;22.70;92.00;;;;;;5124924;27;20036;-74
2022/07/14 05:12:48;;;;;;;7.45;3.80;;;22.70;92.00;;;;;;5124056;27;20136;-74
2022/07/14 05:15:13;;;;;;;7.18;3.75;;;22.70;92.10;;;;;;5125989;27;20032;-74
2022/07/14 05:17:40;;;;;;;6.70;4.40;;;22.70;92.10;;;;;;5123003;27;20146;-75
2022/07/14 05:20:06;;;;;;;6.32;3.55;;;22.70;92.10;;;;;;5127109;27;20039;-75
2022/07/14 05:22:40;;;;;;;8.00;4.00;;;22.60;92.00;;;;;;5130282;27;20087;-75
2022/07/14 05:25:11;;;;;;;6.60;4.18;;;22.60;92.20;;;;;;5129855;27;20049;-74
2022/07/14 05:27:38;;;;;;;5.97;4.15;;;22.50;92.30;;;;;;5127861;27;20048;-75
2022/07/14 05:30:05;;;;;;;8.00;4.60;;;22.40;92.40;;;;;;5129781;27;20042;-74
2022/07/14 05:32:31;;;;;;;7.78;4.25;;;22.40;92.50;;;;;;5130268;27;20051;-74
2022/07/14 05:34:58;;;;;;;6.95;4.38;;;22.50;92.50;;;;;;5129177;27;20204;-74
2022/07/14 05:37:24;;;;;;;6.25;4.43;;;22.40;92.50;;;;;;5130211;27;20039;-74
2022/07/14 05:39:51;;;;;;;7.78;4.40;;;22.50;92.70;;;;;;5129480;27;20039;-74
2022/07/14 05:42:19;;;;;;;6.35;4.07;;;22.50;92.70;;;;;;5128301;27;20585;-74
2022/07/14 05:44:45;;;;;;;5.95;4.40;;;22.60;92.70;;;;;;5129419;27;20046;-74
2022/07/14 05:47:11;;;;;;;7.78;4.50;;;22.60;92.70;;;;;;5129621;27;20062;-75
2022/07/14 05:49:40;;;;;;;9.30;3.97;;;22.70;92.70;;;;;;5126098;27;20055;-75
2022/07/14 05:52:05;;;;;;;7.50;4.50;;;22.70;92.60;;;;;;5130360;27;20027;-74
2022/07/14 05:54:31;;;;;;;7.82;4.30;;;22.80;92.70;;;;;;5128538;27;20445;-73
2022/07/14 05:56:57;;;;;;;9.10;4.03;;;22.70;92.60;;;;;;5110227;27;20139;-74
2022/07/14 05:59:23;;;;;;;8.73;4.57;;;22.70;92.60;;;;;;5127742;27;20036;-75
2022/07/14 06:01:49;;;;;;;6.90;3.78;;;22.70;92.90;;;;;;5128558;27;20524;-74
2022/07/14 06:04:15;;;;;;;7.57;3.78;;;22.60;92.60;;;;;;5127330;27;20081;-74
2022/07/14 06:06:48;;;;;;;6.78;3.90;;;22.60;92.70;;;;;;5129042;27;20524;-75
2022/07/14 06:09:14;;;;;;;8.10;4.18;;;22.60;92.70;;;;;;5127505;27;20332;-74
2022/07/14 06:11:41;;;;;;;6.35;3.88;;;22.60;92.70;;;;;;5127819;27;20540;-75
2022/07/14 06:14:07;;;;;;;5.53;3.85;;;22.60;92.80;;;;;;5128449;27;20035;-75
2022/07/14 06:16:34;;;;;;;5.40;3.70;;;22.60;92.80;;;;;;5110623;27;20042;-75
2022/07/14 06:19:00;;;;;;;8.30;3.33;;;22.60;92.80;;;;;;5126163;27;20039;-75
2022/07/14 06:21:26;;;;;;;7.63;3.30;;;22.60;92.90;;;;;;5126860;27;20504;-75
2022/07/14 06:23:52;;;;;;;8.32;3.70;;;22.70;92.90;;;;;;5127421;27;20035;-74
2022/07/14 06:26:18;;;;;;;7.25;3.83;;;22.70;92.80;;;;;;5128870;27;20046;-75
2022/07/14 06:28:43;;;;;;;5.70;3.28;;;22.80;92.80;;;;;;5128301;27;20047;-75
2022/07/14 06:31:10;;;;;;;5.88;4.25;;;22.80;92.70;;;;;;5125631;27;20127;-74
2022/07/14 06:33:35;;;;;;;4.32;3.20;;;22.80;92.70;;;;;;5128037;27;20588;-75
2022/07/14 06:36:02;;;;;;;5.13;3.28;;;22.80;92.70;;;;;;5127997;27;20040;-75
2022/07/14 06:38:28;;;;;;;5.97;3.90;;;22.90;92.70;;;;;;5127142;27;20061;-75
2022/07/14 06:40:54;;;;;;;5.25;2.90;;;23.00;92.60;;;;;;5128097;27;20031;-75
2022/07/14 06:43:19;;;;;;;4.47;2.90;;;23.10;92.50;;;;;;5129581;27;20047;-74
2022/07/14 06:45:45;;;;;;;4.63;2.42;;;23.20;92.40;;;;;;5127137;27;20042;-75
2022/07/14 06:48:11;;;;;;;3.25;2.10;;;23.30;92.20;;;;;;5109365;27;20039;-75
2022/07/14 06:50:37;;;;;;;4.65;2.40;;;23.30;91.60;;;;;;5127791;27;20036;-75
2022/07/14 06:53:03;;;;;;;3.13;2.03;;;23.30;91.20;;;;;;5127954;27;20036;-75
2022/07/14 06:55:28;;;;;;;6.93;2.70;;;23.40;91.20;;;;;;5126881;27;20046;-75
2022/07/14 06:57:54;;;;;;;7.47;3.63;;;23.40;90.80;;;;;;5129278;27;20587;-75
2022/07/14 07:00:20;;;;;;;4.43;2.10;;;23.30;90.70;;;;;;5127013;27;20513;-74
2022/07/14 07:02:46;;;;;;;3.47;2.10;;;23.30;90.60;;;;;;5128102;27;20035;-74
2022/07/14 07:07:58;;;;;;;4.78;2.67;;;23.20;90.70;;;;;;5129081;27;20055;-75
2022/07/14 07:10:23;;;;;;;2.90;1.75;;;23.20;90.30;;;;;;5143191;27;20043;-75
2022/07/14 07:12:49;;;;;;;3.60;2.03;;;23.10;90.30;;;;;;5129084;27;20040;-75
2022/07/14 07:15:15;;;;;;;3.95;2.10;;;23.10;90.30;;;;;;5128200;27;20118;-75
2022/07/14 07:17:41;;;;;;;4.25;1.70;;;23.10;90.40;;;;;;5127404;27;20135;-74
2022/07/14 07:20:09;;;;;;;3.90;2.25;;;23.10;90.40;;;;;;5127745;27;20039;-75
2022/07/14 07:22:36;;;;;;;5.05;2.67;;;23.10;90.50;;;;;;5127351;27;20039;-75
2022/07/14 07:25:03;;;;;;;4.35;2.20;;;23.20;90.50;;;;;;5127874;27;20092;-74
2022/07/14 07:27:29;;;;;;;3.53;1.73;;;23.20;90.60;;;;;;5127031;27;20528;-74
2022/07/14 07:29:55;;;;;;;4.72;2.05;;;23.20;90.70;;;;;;5126372;27;20035;-74
2022/07/14 07:32:21;;;;;;;5.07;2.03;;;23.30;90.70;;;;;;5127929;27;20027;-74
2022/07/14 07:34:47;;;;;;;3.35;2.00;;;23.30;90.70;;;;;;5125717;27;20035;-75
2022/07/14 07:37:13;;;;;;;4.22;2.35;;;23.40;90.70;;;;;;5129389;27;20031;-74
2022/07/14 07:39:39;;;;;;;6.45;2.83;;;23.40;90.70;;;;;;5127019;27;20118;-75
2022/07/14 07:42:04;;;;;;;4.82;2.10;;;23.50;90.70;;;;;;5127356;27;20108;-75
2022/07/14 07:44:30;;;;;;;4.65;2.17;;;23.60;90.70;;;;;;5125874;27;20855;-75
2022/07/14 07:46:57;;;;;;;5.78;2.50;;;23.60;90.60;;;;;;5127134;27;20065;-75
2022/07/14 07:49:23;;;;;;;4.82;3.00;;;23.60;90.60;;;;;;5126893;27;20101;-74
2022/07/14 07:51:49;;;;;;;3.67;2.22;;;23.70;90.60;;;;;;5126366;27;20093;-75
2022/07/14 07:54:15;;;;;;;3.38;2.20;;;23.70;90.60;;;;;;5126405;27;20093;-75
2022/07/14 07:56:40;;;;;;;4.10;2.03;;;23.60;90.50;;;;;;5125117;27;20763;-74
2022/07/14 07:59:06;;;;;;;3.20;2.03;;;23.60;90.50;;;;;;5126805;27;20111;-75
2022/07/14 08:01:32;;;;;;;2.75;2.20;;;23.70;90.50;;;;;;5126951;27;20046;-75
2022/07/14 08:03:57;;;;;;;3.33;2.70;;;23.70;90.50;;;;;;5126643;27;20076;-75
2022/07/14 08:06:23;;;;;;;4.43;2.03;;;23.70;90.40;;;;;;5127292;27;20052;-75
2022/07/14 08:08:49;;;;;;;4.43;1.98;;;23.80;90.40;;;;;;5125296;27;20112;-74
2022/07/14 08:11:15;;;;;;;5.40;2.20;;;23.80;90.30;;;;;;5125973;27;20451;-74
2022/07/14 08:13:41;;;;;;;3.90;2.78;;;23.80;90.20;;;;;;5125665;27;20041;-74
2022/07/14 08:16:07;;;;;;;4.05;1.90;;;23.80;90.10;;;;;;5125228;27;20042;-74
2022/07/14 08:18:32;;;;;;;3.28;1.60;;;23.90;90.10;;;;;;5128288;27;20082;-75
2022/07/14 08:20:58;;;;;;;7.25;2.00;;;23.90;90.10;;;;;;5125751;27;20039;-75
2022/07/14 08:23:26;;;;;;;5.15;1.92;;;24.00;90.00;;;;;;5127360;27;20039;-75
2022/07/14 08:25:52;;;;;;;3.40;1.60;;;24.00;90.00;;;;;;5124782;27;20039;-74
2022/07/14 08:28:18;;;;;;;2.75;1.67;;;24.10;89.80;;;;;;5108179;27;20090;-75
2022/07/14 08:30:44;;;;;;;2.20;1.63;;;24.10;89.80;;;;;;5124440;27;20590;-75
2022/07/14 08:33:10;;;;;;;3.42;2.15;;;24.10;89.50;;;;;;5126307;27;20054;-75
2022/07/14 08:35:37;;;;;;;5.10;1.67;;;24.20;89.50;;;;;;5124864;27;20069;-75
2022/07/14 08:38:03;;;;;;;3.90;2.60;;;24.20;89.40;;;;;;5125353;27;20166;-75
2022/07/14 08:40:28;;;;;;;4.15;1.85;;;24.20;89.50;;;;;;5108303;27;20100;-75
2022/07/14 08:42:55;;;;;;;2.67;1.95;;;24.30;89.40;;;;;;5124096;27;20414;-75
2022/07/14 08:45:24;;;;;;;4.85;2.10;;;24.30;89.30;;;;;;5125538;27;20040;-75
2022/07/14 08:47:50;;;;;;;3.88;1.70;;;24.30;89.00;;;;;;5127341;27;20032;-75
2022/07/14 08:50:21;;;;;;;2.10;1.45;;;24.30;88.80;;;;;;5122911;27;20069;-75
2022/07/14 08:52:47;;;;;;;2.60;1.85;;;24.50;88.60;;;;;;5124893;27;20578;-75
2022/07/14 08:55:15;;;;;;;2.58;1.63;;;24.40;88.40;;;;;;5125483;27;20564;-75
2022/07/14 08:57:42;;;;;;;2.92;1.80;;;24.40;88.30;;;;;;5125983;27;20047;-75
2022/07/14 09:00:16;;;;;;;3.45;1.38;;;24.50;87.90;;;;;;5124409;27;20138;-75
2022/07/14 09:02:51;;;;;;;3.35;2.00;;;24.50;87.30;;;;;;5127250;27;20415;-75
2022/07/14 09:05:17;;;;;;;2.08;1.38;;;24.50;87.00;;;;;;5123590;27;20134;-75
2022/07/14 09:07:43;;;;;;;3.83;2.20;;;24.60;87.10;;;;;;5125799;27;20050;-75
2022/07/14 09:10:27;;;;;;;5.10;1.90;;;24.60;87.60;;;;;;5126392;27;20574;-75
2022/07/14 09:13:12;;;;;;;2.40;1.80;;;24.60;87.00;;;;;;5126252;27;20037;-75
2022/07/14 09:15:47;;;;;;;3.15;1.50;;;24.70;86.70;;;;;;5126218;27;20513;-75
2022/07/14 09:18:26;;;;;;;3.63;1.80;;;24.70;86.30;;;;;;5126517;27;20063;-75
2022/07/14 09:20:54;;;;;;;4.57;1.42;;;24.80;86.20;;;;;;5125049;27;20771;-75
2022/07/14 09:23:35;;;;;;;2.95;2.28;;;24.80;85.80;;;;;;5127217;27;20618;-76
2022/07/14 09:26:20;;;;;;;2.40;1.60;;;24.90;85.40;;;;;;5106146;27;20521;-75
2022/07/14 09:28:48;;;;;;;2.95;1.70;;;24.90;85.20;;;;;;5126334;27;20536;-75
2022/07/14 09:31:30;;;;;;;2.50;1.45;;;25.00;84.80;;;;;;5124351;27;20575;-76
2022/07/14 09:33:58;;;;;;;;;;;25.00;84.70;;;;;;5125949;27;20055;-75
2022/07/14 09:36:26;;;;;;;3.60;1.60;;;25.00;84.50;;;;;;5126252;27;20016;-75
2022/07/14 09:38:57;;;;;;;2.53;1.20;;;25.10;84.40;;;;;;5126244;27;20078;-75
2022/07/14 09:41:24;;;;;;;3.10;1.30;;;25.20;83.80;;;;;;5124012;27;20571;-75
2022/07/14 09:44:17;;;;;;;2.25;1.08;;;25.20;82.60;;;;;;5125215;27;20442;-75
2022/07/14 09:46:51;;;;;;;2.92;1.13;;;25.30;81.80;;;;;;5123457;27;20038;-78
2022/07/14 09:49:19;;;;;;;1.52;1.02;;;25.40;81.50;;;;;;5126209;27;20114;-74
2022/07/14 09:51:59;;;;;;;1.55;1.02;;;25.40;80.90;;;;;;5124899;27;20076;-75
2022/07/14 09:54:42;;;;;;;1.45;0.80;;;25.40;80.30;;;;;;5126030;27;20046;-75
2022/07/14 09:57:12;;;;;;;1.10;1.00;;;25.40;79.60;;;;;;5125394;27;20039;-75
2022/07/14 09:59:45;;;;;;;5.63;1.63;;;25.40;79.80;;;;;;5125883;27;20060;-75
2022/07/14 10:02:17;;;;;;;2.70;1.23;;;25.50;80.00;;;;;;5123939;27;20588;-75
2022/07/14 10:04:44;;;;;;;1.33;1.00;;;25.50;78.90;;;;;;5126004;27;20906;-75
2022/07/14 10:07:15;;;;;;;1.25;0.80;;;25.50;78.70;;;;;;5124211;27;20044;-75
2022/07/14 10:09:54;;;;;;;8.13;1.10;;;25.60;78.10;;;;;;5127492;27;20056;-75
2022/07/14 10:12:21;;;;;;;1.13;0.80;;;25.60;77.90;;;;;;5127326;27;20031;-75
2022/07/14 10:14:48;;;;;;;1.38;1.10;;;25.60;77.20;;;;;;5128016;27;20041;-75
2022/07/14 10:17:16;;;;;;;3.78;0.90;;;25.60;77.40;;;;;;5128525;27;20035;-75
2022/07/14 10:19:42;;;;;;;1.45;0.93;;;25.70;77.30;;;;;;5127288;27;20599;-75
2022/07/14 10:22:09;;;;;;;1.58;0.80;;;25.70;77.10;;;;;;5128542;27;20048;-75
2022/07/14 10:24:35;;;;;;;2.25;1.23;;;25.70;77.10;;;;;;5127206;27;20589;-75
2022/07/14 10:27:02;;;;;;;1.00;0.90;;;25.80;76.70;;;;;;5128118;27;20137;-75
2022/07/14 10:29:28;;;;;;;2.35;1.20;;;25.80;76.70;;;;;;5126946;27;20035;-75
2022/07/14 10:32:03;;;;;;;1.15;0.93;;;25.90;76.60;;;;;;5128643;27;20575;-76
2022/07/14 10:34:45;;;;;;;1.90;0.90;;;25.90;76.50;;;;;;5109069;27;20529;-75
2022/07/14 10:37:22;;;;;;;0.85;0.65;;;26.00;76.70;;;;;;5127603;27;20814;-75
2022/07/14 10:39:49;;;;;;;1.25;1.10;;;26.00;76.30;;;;;;5125689;27;20352;-75
2022/07/14 10:42:32;;;;;;;2.05;0.80;;;26.00;76.20;;;;;;5129412;27;20039;-75
2022/07/14 10:45:01;;;;;;;1.15;0.90;;;26.00;76.40;;;;;;5128172;27;20040;-75
2022/07/14 10:47:52;;;;;;;1.40;1.00;;;26.00;76.30;;;;;;5127334;27;20043;-75
2022/07/14 10:50:27;;;;;;;1.65;1.00;;;26.00;76.30;;;;;;5110973;27;20597;-75
2022/07/14 10:52:55;;;;;;;2.67;1.38;;;26.00;76.40;;;;;;5130093;27;20035;-75
2022/07/14 10:55:27;;;;;;;1.98;1.10;;;26.00;76.20;;;;;;5127671;27;20047;-75
2022/07/14 10:57:59;;;;;;;1.40;0.95;;;26.10;76.00;;;;;;5126075;27;20043;-75
2022/07/14 11:03:48;;;;;;;3.55;1.30;;;26.10;75.90;;;;;;5129673;27;20055;-75
2022/07/14 11:06:17;;;;;;;1.77;1.15;;;26.20;75.70;;;;;;5128797;27;20118;-75
2022/07/14 11:08:45;;;;;;;2.80;0.95;;;26.20;75.60;;;;;;5125977;27;20102;-75
2022/07/14 11:11:23;;;;;;;3.40;1.25;;;26.30;75.60;;;;;;5128815;27;20031;-75
2022/07/14 11:14:01;;;;;;;2.33;1.73;;;26.30;75.70;;;;;;5125793;27;20032;-75
2022/07/14 11:16:55;;;;;;;3.22;1.45;;;26.30;75.10;;;;;;5127177;27;20134;-74
2022/07/14 11:19:27;;;;;;;3.58;1.63;;;26.40;75.00;;;;;;5118297;27;20043;-74
2022/07/14 11:22:29;;;;;;;1.38;1.20;;;26.40;75.00;;;;;;5127017;27;20414;-74
2022/07/14 11:24:57;;;;;;;4.40;1.65;;;26.40;75.00;;;;;;5043819;28;20041;-74
2022/07/14 11:27:30;;;;;;;2.03;1.20;;;26.40;75.20;;;;;;5105844;27;20047;-74
2022/07/14 11:30:24;;;;;;;3.22;1.38;;;26.30;75.20;;;;;;5126605;27;20043;-75
2022/07/14 11:33:11;;;;;;;2.65;1.23;;;26.40;75.40;;;;;;5125626;27;20062;-74
2022/07/14 11:38:40;;;;;;;3.38;1.80;;;26.40;75.30;;;;;;5127517;27;20040;-75
2022/07/14 11:41:13;;;;;;;2.67;1.58;;;26.50;75.60;;;;;;5125128;27;20047;-75
2022/07/14 11:43:48;;;;;;;3.20;1.60;;;26.50;75.90;;;;;;5125795;27;20044;-75
2022/07/14 11:46:17;;;;;;;2.72;1.45;;;26.60;76.10;;;;;;5126275;27;20124;-74
2022/07/14 11:48:48;;;;;;;3.33;2.33;;;26.60;76.00;;;;;;5126834;27;20674;-75
2022/07/14 11:51:25;;;;;;;4.20;1.77;;;26.60;76.30;;;;;;5126533;27;20519;-74
2022/07/14 11:54:01;;;;;;;2.85;1.80;;;26.60;76.50;;;;;;5127140;27;20093;-75
2022/07/14 11:56:30;;;;;;;2.85;1.90;;;26.70;76.60;;;;;;5125967;27;20051;-74
2022/07/14 11:59:03;;;;;;;2.95;1.60;;;26.70;76.60;;;;;;5127667;27;20555;-74
2022/07/14 12:01:38;;;;;;;4.90;2.28;;;26.70;76.60;;;;;;5126125;27;20580;-75
2022/07/14 12:04:17;;;;;;;2.78;1.70;;;26.70;76.80;;;;;;5126968;27;20045;-75
2022/07/14 12:06:45;;;;;;;2.80;1.77;;;26.70;76.80;;;;;;5126588;27;20036;-74
2022/07/14 12:09:11;;;;;;;5.43;1.67;;;26.70;77.10;;;;;;5123112;27;20059;-74
2022/07/14 12:11:37;;;;;;;5.15;1.70;;;26.70;77.30;;;;;;5126506;27;20235;-74
2022/07/14 12:14:03;;;;;;;3.47;1.70;;;26.70;77.20;;;;;;5125204;27;20051;-75
2022/07/14 12:16:44;;;;;;;3.95;2.47;;;26.80;77.20;;;;;;5126224;27;20448;-75
2022/07/14 12:19:11;;;;;;;8.63;2.57;;;26.90;77.20;;;;;;5123892;27;20823;-75
2022/07/14 12:21:38;;;;;;;4.15;1.98;;;26.80;77.20;;;;;;5110099;27;20048;-74
2022/07/14 12:24:11;;;;;;;4.32;1.58;;;26.90;76.90;;;;;;5125883;27;20112;-74
2022/07/14 12:26:37;;;;;;;3.95;1.38;;;26.90;76.20;;;;;;5128889;27;20042;-74
2022/07/14 12:29:04;;;;;;;2.85;1.75;;;26.90;75.90;;;;;;5126534;27;20120;-74
2022/07/14 12:31:38;;;;;;;2.85;1.42;;;27.00;76.00;;;;;;5126905;27;20036;-75
2022/07/14 12:34:04;;;;;;;3.78;1.60;;;27.00;76.00;;;;;;5125519;27;20082;-74
2022/07/14 12:36:30;;;;;;;5.00;1.70;;;27.00;75.30;;;;;;5126449;27;20557;-74
2022/07/14 12:38:59;;;;;;;2.28;1.58;;;27.00;74.70;;;;;;5126333;27;20031;-74
2022/07/14 12:41:25;;;;;;;2.03;1.48;;;27.00;74.70;;;;;;5126259;27;20508;-74
2022/07/14 12:43:52;;;;;;;3.28;2.00;;;27.00;74.60;;;;;;5126884;27;20055;-74
2022/07/14 12:46:23;;;;;;;3.72;2.55;;;27.10;73.60;;;;;;5126192;27;20075;-74
2022/07/14 12:48:52;;;;;;;5.13;2.55;;;27.10;73.70;;;;;;5126118;27;20058;-74
2022/07/14 12:51:30;;;;;;;3.53;1.90;;;27.10;73.40;;;;;;5125006;27;20040;-75
2022/07/14 12:54:18;;;;;;;2.67;2.08;;;27.10;72.80;;;;;;5125781;27;20084;-75
2022/07/14 12:56:43;;;;;;;3.25;1.83;;;27.10;72.90;;;;;;5125559;27;20039;-75
2022/07/14 12:59:31;;;;;;;3.03;2.00;;;27.10;72.30;;;;;;5126359;27;20089;-74
2022/07/14 13:02:08;;;;;;;2.90;2.13;;;27.20;72.00;;;;;;5123847;27;20118;-74
2022/07/14 13:04:45;;;;;;;2.85;1.83;;;27.10;71.80;;;;;;5125526;27;20035;-74
2022/07/14 13:07:15;;;;;;;8.27;3.38;;;27.20;71.80;;;;;;5124630;27;20035;-74